Time,TemperatureF,DewpointF,PressureIn,WindDirection,WindDirectionDegrees,WindSpeedMPH,WindSpeedGustMPH,Humidity,HourlyPrecipIn,Conditions,Clouds,dailyrainin,SolarRadiationWatts/m^2,SoftwareType,DateUTC
2013-04-15 00:01:00,17.0,15.0,-100.00,NNW,344,12.0,19.0,92,0.00,,,-99.99,0.000000,,2013-04-15 06:01:00,
2013-04-15 00:23:00,17.0,15.0,-100.00,NNW,344,12.0,19.0,92,0.00,,,-99.99,0.000000,,2013-04-15 06:23:00,
2013-04-15 00:34:00,17.0,15.0,-100.00,NNW,344,12.0,19.0,92,0.00,,,-99.99,0.000000,,2013-04-15 06:34:00,
2013-04-15 00:43:00,17.0,15.0,-100.00,NNW,344,12.0,19.0,92,0.00,,,-99.99,0.000000,,2013-04-15 06:43:00,
2013-04-15 00:52:00,17.0,15.0,-100.00,NNW,344,12.0,19.0,92,0.00,,,-99.99,0.000000,,2013-04-15 06:52:00,
2013-04-15 01:01:00,16.0,14.0,-100.00,NNW,341,9.0,16.0,91,0.00,,,0.00,0.000000,,2013-04-15 07:01:00,
2013-04-15 01:42:00,16.0,14.0,-100.00,NNW,341,9.0,16.0,91,0.00,,,0.00,0.000000,,2013-04-15 07:42:00,
2013-04-15 01:43:00,16.0,14.0,-100.00,NNW,341,9.0,16.0,91,0.00,,,0.00,0.000000,,2013-04-15 07:43:00,
2013-04-15 01:54:00,16.0,14.0,-100.00,NNW,341,9.0,16.0,91,0.00,,,0.00,0.000000,,2013-04-15 07:54:00,
2013-04-15 02:01:00,16.0,14.0,-100.00,NW,319,9.0,15.0,91,0.00,,,0.00,0.000000,,2013-04-15 08:01:00,
2013-04-15 02:34:00,16.0,14.0,-100.00,NW,319,9.0,15.0,91,0.00,,,0.00,0.000000,,2013-04-15 08:34:00,
2013-04-15 02:43:00,16.0,14.0,-100.00,NW,319,9.0,15.0,91,0.00,,,0.00,0.000000,,2013-04-15 08:43:00,
2013-04-15 02:52:00,16.0,14.0,-100.00,NW,319,9.0,15.0,91,0.00,,,0.00,0.000000,,2013-04-15 08:52:00,
2013-04-15 03:01:00,16.0,14.0,-100.00,NW,312,10.0,13.0,91,0.00,,,0.00,0.000000,,2013-04-15 09:01:00,
2013-04-15 03:23:00,16.0,14.0,-100.00,NW,312,10.0,13.0,91,0.00,,,0.00,0.000000,,2013-04-15 09:23:00,
2013-04-15 03:33:00,16.0,14.0,-100.00,NW,312,10.0,13.0,91,0.00,,,0.00,0.000000,,2013-04-15 09:33:00,
2013-04-15 03:43:00,16.0,14.0,-100.00,NW,312,10.0,13.0,91,0.00,,,0.00,0.000000,,2013-04-15 09:43:00,
2013-04-15 03:53:00,16.0,14.0,-100.00,NW,312,10.0,13.0,91,0.00,,,0.00,0.000000,,2013-04-15 09:53:00,
2013-04-15 04:01:00,16.0,14.0,-100.00,NW,310,11.0,18.0,91,0.00,,,-99.99,0.000000,,2013-04-15 10:01:00,
2013-04-15 04:33:00,16.0,14.0,-100.00,NW,310,11.0,18.0,91,0.00,,,-99.99,0.000000,,2013-04-15 10:33:00,
2013-04-15 04:42:00,16.0,14.0,-100.00,NW,310,11.0,18.0,91,0.00,,,-99.99,0.000000,,2013-04-15 10:42:00,
2013-04-15 04:53:00,16.0,14.0,-100.00,NW,310,11.0,18.0,91,0.00,,,-99.99,0.000000,,2013-04-15 10:53:00,
2013-04-15 05:01:00,16.0,14.0,-100.00,NW,310,11.0,15.0,91,0.00,,,0.00,0.000000,,2013-04-15 11:01:00,
2013-04-15 05:23:00,16.0,14.0,-100.00,NW,310,11.0,15.0,91,0.00,,,0.00,0.000000,,2013-04-15 11:23:00,
2013-04-15 05:33:00,16.0,14.0,-100.00,NW,310,11.0,15.0,91,0.00,,,0.00,0.000000,,2013-04-15 11:33:00,
2013-04-15 05:43:00,16.0,14.0,-100.00,NW,310,11.0,15.0,91,0.00,,,0.00,0.000000,,2013-04-15 11:43:00,
2013-04-15 05:53:00,16.0,14.0,-100.00,NW,310,11.0,15.0,91,0.00,,,0.00,0.000000,,2013-04-15 11:53:00,
2013-04-15 06:01:00,16.0,14.0,-100.00,NW,312,12.0,17.0,91,0.00,,,0.00,0.000000,,2013-04-15 12:01:00,
2013-04-15 06:43:00,16.0,14.0,-100.00,NW,312,12.0,17.0,91,0.00,,,0.00,0.000000,,2013-04-15 12:43:00,
2013-04-15 06:53:00,16.0,14.0,-100.00,NW,312,12.0,17.0,91,0.00,,,0.00,0.000000,,2013-04-15 12:53:00,
2013-04-15 07:01:00,16.0,14.0,-100.00,West,280,11.0,17.0,91,0.00,,,0.00,9.000000,,2013-04-15 13:01:00,
2013-04-15 07:34:00,16.0,14.0,-100.00,West,280,11.0,17.0,91,0.00,,,0.00,9.000000,,2013-04-15 13:34:00,
2013-04-15 07:43:00,16.0,14.0,-100.00,West,280,11.0,17.0,91,0.00,,,0.00,9.000000,,2013-04-15 13:43:00,
2013-04-15 07:54:00,16.0,14.0,-100.00,West,280,11.0,17.0,91,0.00,,,0.00,9.000000,,2013-04-15 13:54:00,
2013-04-15 08:01:00,17.0,15.0,-100.00,WNW,291,13.0,19.0,91,0.00,,,0.00,86.000000,,2013-04-15 14:01:00,
2013-04-15 08:23:00,17.0,15.0,-100.00,WNW,291,13.0,19.0,91,0.00,,,0.00,86.000000,,2013-04-15 14:23:00,
2013-04-15 08:34:00,17.0,15.0,-100.00,WNW,291,13.0,19.0,91,0.00,,,0.00,86.000000,,2013-04-15 14:34:00,
2013-04-15 08:44:00,17.0,15.0,-100.00,WNW,291,13.0,19.0,91,0.00,,,0.00,86.000000,,2013-04-15 14:44:00,
2013-04-15 08:55:00,17.0,15.0,-100.00,WNW,291,13.0,19.0,91,0.00,,,0.00,86.000000,,2013-04-15 14:55:00,
2013-04-15 09:01:00,19.0,17.0,-100.00,WNW,286,13.0,21.0,91,0.00,,,0.00,298.000000,,2013-04-15 15:01:00,
2013-04-15 09:37:00,19.0,17.0,-100.00,WNW,286,13.0,21.0,91,0.00,,,0.00,298.000000,,2013-04-15 15:37:00,
2013-04-15 09:45:00,19.0,17.0,-100.00,WNW,286,13.0,21.0,91,0.00,,,0.00,298.000000,,2013-04-15 15:45:00,
2013-04-15 09:55:00,19.0,17.0,-100.00,WNW,286,13.0,21.0,91,0.00,,,0.00,298.000000,,2013-04-15 15:55:00,
2013-04-15 10:01:00,20.0,18.0,-100.00,WNW,298,12.0,19.0,91,0.00,,,0.00,408.000000,,2013-04-15 16:01:00,
2013-04-15 10:25:00,20.0,18.0,-100.00,WNW,298,12.0,19.0,91,0.00,,,0.00,408.000000,,2013-04-15 16:25:00,
2013-04-15 10:44:00,20.0,18.0,-100.00,WNW,298,12.0,19.0,91,0.00,,,0.00,408.000000,,2013-04-15 16:44:00,
2013-04-15 10:54:00,20.0,18.0,-100.00,WNW,298,12.0,19.0,91,0.00,,,0.00,408.000000,,2013-04-15 16:54:00,
2013-04-15 11:01:00,23.0,21.0,-100.00,WNW,294,14.0,20.0,91,0.00,,,0.00,627.000000,,2013-04-15 17:01:00,
2013-04-15 11:33:00,23.0,21.0,-100.00,WNW,294,14.0,20.0,91,0.00,,,0.00,627.000000,,2013-04-15 17:33:00,
2013-04-15 11:43:00,23.0,21.0,-100.00,WNW,294,14.0,20.0,91,0.00,,,0.00,627.000000,,2013-04-15 17:43:00,
2013-04-15 11:52:00,23.0,21.0,-100.00,WNW,294,14.0,20.0,91,0.00,,,0.00,627.000000,,2013-04-15 17:52:00,
2013-04-15 12:01:00,22.0,20.0,-100.00,NNW,334,13.0,21.0,92,0.03,,,0.03,683.000000,,2013-04-15 18:01:00,
2013-04-15 12:24:00,22.0,20.0,-100.00,NNW,334,13.0,21.0,92,0.03,,,0.03,683.000000,,2013-04-15 18:24:00,
2013-04-15 12:33:00,22.0,20.0,-100.00,NNW,334,13.0,21.0,92,0.03,,,0.03,683.000000,,2013-04-15 18:33:00,
2013-04-15 12:42:00,22.0,20.0,-100.00,NNW,334,13.0,21.0,92,0.03,,,0.03,683.000000,,2013-04-15 18:42:00,
2013-04-15 12:52:00,22.0,20.0,-100.00,NNW,334,13.0,21.0,92,0.03,,,0.03,683.000000,,2013-04-15 18:52:00,
2013-04-15 13:01:00,24.0,22.0,-100.00,NNW,329,13.0,24.0,92,0.12,,,0.15,681.000000,,2013-04-15 19:01:00,
2013-04-15 13:22:00,24.0,22.0,-100.00,NNW,329,13.0,24.0,92,0.12,,,0.15,681.000000,,2013-04-15 19:22:00,
2013-04-15 13:39:00,24.0,22.0,-100.00,NNW,329,13.0,24.0,92,0.12,,,0.15,681.000000,,2013-04-15 19:39:00,
2013-04-15 14:01:00,24.0,22.0,-100.00,NNW,329,12.0,20.0,92,0.05,,,0.20,565.000000,,2013-04-15 20:01:00,
2013-04-15 14:32:00,24.0,22.0,-100.00,NNW,329,12.0,20.0,92,0.05,,,0.20,565.000000,,2013-04-15 20:32:00,
2013-04-15 14:42:00,24.0,22.0,-100.00,NNW,329,12.0,20.0,92,0.05,,,0.20,565.000000,,2013-04-15 20:42:00,
2013-04-15 14:52:00,24.0,22.0,-100.00,NNW,329,12.0,20.0,92,0.05,,,0.20,565.000000,,2013-04-15 20:52:00,
2013-04-15 15:01:00,24.0,22.0,-100.00,NNW,331,11.0,16.0,93,0.01,,,0.21,533.000000,,2013-04-15 21:01:00,
2013-04-15 15:33:00,24.0,22.0,-100.00,NNW,331,11.0,16.0,93,0.01,,,0.21,533.000000,,2013-04-15 21:33:00,
2013-04-15 15:43:00,24.0,22.0,-100.00,NNW,331,11.0,16.0,93,0.01,,,0.21,533.000000,,2013-04-15 21:43:00,
2013-04-15 15:53:00,24.0,22.0,-100.00,NNW,331,11.0,16.0,93,0.01,,,0.21,533.000000,,2013-04-15 21:53:00,
2013-04-15 16:01:00,24.0,22.0,-100.00,NNW,345,12.0,16.0,92,0.00,,,0.21,476.000000,,2013-04-15 22:01:00,
2013-04-15 16:33:00,24.0,22.0,-100.00,NNW,345,12.0,16.0,92,0.00,,,0.21,476.000000,,2013-04-15 22:33:00,
2013-04-15 16:42:00,24.0,22.0,-100.00,NNW,345,12.0,16.0,92,0.00,,,0.21,476.000000,,2013-04-15 22:42:00,
2013-04-15 16:52:00,24.0,22.0,-100.00,NNW,345,12.0,16.0,92,0.00,,,0.21,476.000000,,2013-04-15 22:52:00,
2013-04-15 17:01:00,23.0,21.0,-100.00,NNW,337,11.0,17.0,93,0.00,,,0.21,349.000000,,2013-04-15 23:01:00,
2013-04-15 17:32:00,23.0,21.0,-100.00,NNW,337,11.0,17.0,93,0.00,,,0.21,349.000000,,2013-04-15 23:32:00,
2013-04-15 17:42:00,23.0,21.0,-100.00,NNW,337,11.0,17.0,93,0.00,,,0.21,349.000000,,2013-04-15 23:42:00,
2013-04-15 17:52:00,23.0,21.0,-100.00,NNW,337,11.0,17.0,93,0.00,,,0.21,349.000000,,2013-04-15 23:52:00,
2013-04-15 18:01:00,23.0,21.0,-100.00,North,349,11.0,15.0,92,0.00,,,0.21,316.000000,,2013-04-16 00:01:00,
2013-04-15 18:22:00,23.0,21.0,-100.00,North,349,11.0,15.0,92,0.00,,,0.21,316.000000,,2013-04-16 00:22:00,
2013-04-15 18:32:00,23.0,21.0,-100.00,North,349,11.0,15.0,92,0.00,,,0.21,316.000000,,2013-04-16 00:32:00,
2013-04-15 18:42:00,23.0,21.0,-100.00,North,349,11.0,15.0,92,0.00,,,0.21,316.000000,,2013-04-16 00:42:00,
2013-04-15 18:52:00,23.0,21.0,-100.00,North,349,11.0,15.0,92,0.00,,,0.21,316.000000,,2013-04-16 00:52:00,
2013-04-15 19:01:00,22.0,20.0,-100.00,NNW,344,9.0,14.0,93,0.00,,,0.21,128.000000,,2013-04-16 01:01:00,
2013-04-15 19:22:00,22.0,20.0,-100.00,NNW,344,9.0,14.0,93,0.00,,,0.21,128.000000,,2013-04-16 01:22:00,
2013-04-15 19:32:00,22.0,20.0,-100.00,NNW,344,9.0,14.0,93,0.00,,,0.21,128.000000,,2013-04-16 01:32:00,
2013-04-15 19:42:00,22.0,20.0,-100.00,NNW,344,9.0,14.0,93,0.00,,,0.21,128.000000,,2013-04-16 01:42:00,
2013-04-15 19:52:00,22.0,20.0,-100.00,NNW,344,9.0,14.0,93,0.00,,,0.21,128.000000,,2013-04-16 01:52:00,
2013-04-15 20:01:00,21.0,20.0,-100.00,NW,323,7.0,10.0,94,0.00,,,0.21,44.000000,,2013-04-16 02:01:00,
2013-04-15 20:32:00,21.0,20.0,-100.00,NW,323,7.0,10.0,94,0.00,,,0.21,44.000000,,2013-04-16 02:32:00,
2013-04-15 20:42:00,21.0,20.0,-100.00,NW,323,7.0,10.0,94,0.00,,,0.21,44.000000,,2013-04-16 02:42:00,
2013-04-15 20:52:00,21.0,20.0,-100.00,NW,323,7.0,10.0,94,0.00,,,0.21,44.000000,,2013-04-16 02:52:00,
2013-04-15 21:01:00,20.0,19.0,-100.00,WNW,298,8.0,12.0,94,0.00,,,0.21,0.000000,,2013-04-16 03:01:00,
2013-04-15 21:33:00,20.0,19.0,-100.00,WNW,298,8.0,12.0,94,0.00,,,0.21,0.000000,,2013-04-16 03:33:00,
2013-04-15 21:43:00,20.0,19.0,-100.00,WNW,298,8.0,12.0,94,0.00,,,0.21,0.000000,,2013-04-16 03:43:00,
2013-04-15 21:53:00,20.0,19.0,-100.00,WNW,298,8.0,12.0,94,0.00,,,0.21,0.000000,,2013-04-16 03:53:00,
2013-04-15 22:01:00,19.0,17.0,-100.00,WNW,288,8.0,12.0,93,0.00,,,0.21,0.000000,,2013-04-16 04:01:00,
2013-04-15 22:23:00,19.0,17.0,-100.00,WNW,288,8.0,12.0,93,0.00,,,0.21,0.000000,,2013-04-16 04:23:00,
2013-04-15 22:33:00,19.0,17.0,-100.00,WNW,288,8.0,12.0,93,0.00,,,0.21,0.000000,,2013-04-16 04:33:00,
2013-04-15 22:42:00,19.0,17.0,-100.00,WNW,288,8.0,12.0,93,0.00,,,0.21,0.000000,,2013-04-16 04:42:00,
2013-04-15 22:53:00,19.0,17.0,-100.00,WNW,288,8.0,12.0,93,0.00,,,0.21,0.000000,,2013-04-16 04:53:00,
2013-04-15 23:01:00,19.0,17.0,-100.00,WNW,302,9.0,11.0,93,0.00,,,0.21,0.000000,,2013-04-16 05:01:00,
2013-04-15 23:22:00,19.0,17.0,-100.00,WNW,302,9.0,11.0,93,0.00,,,0.21,0.000000,,2013-04-16 05:22:00,
2013-04-15 23:32:00,19.0,17.0,-100.00,WNW,302,9.0,11.0,93,0.00,,,0.21,0.000000,,2013-04-16 05:32:00,
2013-04-15 23:42:00,19.0,17.0,-100.00,WNW,302,9.0,11.0,93,0.00,,,0.21,0.000000,,2013-04-16 05:42:00,
2013-04-15 23:52:00,19.0,17.0,-100.00,WNW,302,9.0,11.0,93,0.00,,,0.21,0.000000,,2013-04-16 05:52:00,